Time;durP1;ratioP1;P1;durP2;ratioP2;P2;SDS_P1;SDS_P2;PMS_P1;PMS_P2;Temp;Humidity;BMP_temperature;BMP_pressure;BME280_temperature;BME280_humidity;BME280_pressure;Samples;Min_cycle;Max_cycle;Signal;HPM_P1;HPM_P2
2022/08/16 00:00:51;;;;;;;8.93;5.37;;;;;;;20.98;100.00;100119.91;4978612;28;1026447;-74
2022/08/16 00:03:17;;;;;;;11.67;6.90;;;;;;;20.97;100.00;100123.06;5014909;28;20697;-73
2022/08/16 00:05:44;;;;;;;9.10;5.77;;;;;;;20.97;100.00;100123.06;5015154;28;20447;-74
2022/08/16 00:08:11;;;;;;;10.93;6.50;;;;;;;20.95;100.00;100117.16;5015352;28;20444;-74
2022/08/16 00:10:38;;;;;;;14.10;7.57;;;;;;;20.94;100.00;100118.31;5014931;28;20464;-73
2022/08/16 00:13:08;;;;;;;11.83;6.37;;;;;;;20.96;100.00;100127.78;5015031;28;20444;-73
2022/08/16 00:15:40;;;;;;;10.03;6.17;;;;;;;20.97;100.00;100131.31;5015018;28;20429;-74
2022/08/16 00:18:08;;;;;;;9.83;5.60;;;;;;;20.98;100.00;100135.66;5014935;28;20424;-74
2022/08/16 00:20:36;;;;;;;9.90;5.97;;;;;;;20.95;100.00;100134.47;5014762;28;20492;-74
2022/08/16 00:23:02;;;;;;;9.73;6.00;;;;;;;20.89;100.00;100138.72;5015042;28;20455;-73
2022/08/16 00:25:29;;;;;;;13.73;7.13;;;;;;;20.83;100.00;100149.31;5014425;28;20933;-73
2022/08/16 00:27:56;;;;;;;8.70;5.90;;;;;;;20.82;100.00;100146.94;5014728;28;20447;-73
2022/08/16 00:30:24;;;;;;;11.87;6.50;;;;;;;20.80;100.00;100147.31;5014644;28;20460;-73
2022/08/16 00:32:56;;;;;;;10.13;6.23;;;;;;;20.76;100.00;100149.28;5014616;28;20466;-73
2022/08/16 00:35:25;;;;;;;11.53;7.27;;;;;;;20.69;100.00;100146.44;5014690;28;20429;-73
2022/08/16 00:37:54;;;;;;;10.60;6.80;;;;;;;20.67;100.00;100148.78;5014511;28;20444;-73
2022/08/16 00:40:24;;;;;;;12.53;6.27;;;;;;;20.66;100.00;100147.19;5014407;28;20487;-73
2022/08/16 00:42:51;;;;;;;11.60;7.33;;;;;;;20.65;100.00;100148.38;5014490;28;20448;-73
2022/08/16 00:45:31;;;;;;;13.30;7.30;;;;;;;20.61;100.00;100148.34;5014455;28;20451;-73
2022/08/16 00:47:57;;;;;;;11.80;7.33;;;;;;;20.62;100.00;100151.88;5014427;28;20428;-73
2022/08/16 00:50:28;;;;;;;10.47;6.80;;;;;;;20.62;100.00;100140.88;5014379;28;20468;-73
2022/08/16 00:52:54;;;;;;;10.17;6.40;;;;;;;20.59;100.00;100141.66;5014360;28;20443;-74
2022/08/16 00:55:24;;;;;;;10.90;6.90;;;;;;;20.57;100.00;100143.97;5014302;28;20444;-73
2022/08/16 00:57:54;;;;;;;12.13;7.87;;;;;;;20.54;100.00;100147.47;5014200;28;20451;-74
2022/08/16 01:00:23;;;;;;;10.40;6.87;;;;;;;20.49;100.00;100136.81;5013944;28;20479;-73
2022/08/16 01:02:51;;;;;;;8.50;5.30;;;;;;;20.42;100.00;100146.56;5014177;28;20443;-73
2022/08/16 01:05:18;;;;;;;12.70;6.67;;;;;;;20.43;100.00;100144.59;5013805;28;20444;-73
2022/08/16 01:07:46;;;;;;;9.30;6.27;;;;;;;20.40;100.00;100148.88;5013735;28;20472;-72
2022/08/16 01:10:12;;;;;;;14.13;7.20;;;;;;;20.37;100.00;100146.13;5014073;28;20444;-75
2022/08/16 01:12:39;;;;;;;11.83;6.47;;;;;;;20.34;100.00;100152.38;5013957;28;20447;-74
2022/08/16 01:15:07;;;;;;;10.57;6.40;;;;;;;20.33;100.00;100162.59;5013975;28;20440;-73
2022/08/16 01:17:34;;;;;;;11.73;6.90;;;;;;;20.31;100.00;100153.91;5013845;28;20452;-72
2022/08/16 01:20:07;;;;;;;11.30;7.13;;;;;;;20.31;100.00;100153.91;5013746;28;20541;-71
2022/08/16 01:22:44;;;;;;;12.20;6.90;;;;;;;20.29;100.00;100152.72;5013768;28;20479;-71
2022/08/16 01:25:18;;;;;;;11.80;6.60;;;;;;;20.28;100.00;100154.69;5013867;28;20531;-71
2022/08/16 01:27:48;;;;;;;14.70;7.93;;;;;;;20.28;100.00;100160.19;5013751;28;20436;-71
2022/08/16 01:30:17;;;;;;;11.20;6.30;;;;;;;20.23;100.00;100162.47;5013343;28;20483;-71
2022/08/16 01:32:44;;;;;;;11.60;7.20;;;;;;;20.22;100.00;100161.69;5013644;28;20432;-71
2022/08/16 01:35:17;;;;;;;9.70;5.77;;;;;;;20.24;100.00;100166.81;5013818;28;20448;-71
2022/08/16 01:37:49;;;;;;;9.50;6.17;;;;;;;20.21;100.00;100176.59;5013640;28;20424;-72
2022/08/16 01:40:19;;;;;;;9.87;6.33;;;;;;;20.21;100.00;100173.06;5013530;28;20428;-71
2022/08/16 01:42:48;;;;;;;12.03;7.00;;;;;;;20.23;100.00;100178.97;5013403;28;20496;-71
2022/08/16 01:45:14;;;;;;;13.07;7.20;;;;;;;20.21;100.00;100179.34;5013555;28;20444;-71
2022/08/16 01:47:43;;;;;;;14.30;7.93;;;;;;;20.19;100.00;100178.13;5013156;28;21003;-71
2022/08/16 01:50:09;;;;;;;11.60;6.97;;;;;;;20.16;100.00;100177.72;5013540;28;20781;-71
2022/08/16 01:52:36;;;;;;;12.60;7.10;;;;;;;20.11;100.00;100171.78;5013188;28;20436;-71
2022/08/16 01:55:04;;;;;;;13.70;7.97;;;;;;;20.04;100.00;100171.69;5013717;28;20494;-71
2022/08/16 01:57:32;;;;;;;14.50;8.13;;;;;;;20.02;100.00;100161.06;5013418;28;20450;-72
2022/08/16 01:59:59;;;;;;;13.40;7.53;;;;;;;20.03;100.00;100170.13;5013214;28;20452;-72
2022/08/16 02:02:26;;;;;;;15.30;7.50;;;;;;;19.97;100.00;100177.13;5013307;28;20489;-72
2022/08/16 02:04:53;;;;;;;15.87;6.73;;;;;;;19.95;100.00;100177.47;5013329;28;20440;-71
2022/08/16 02:07:21;;;;;;;9.33;6.00;;;;;;;19.92;100.00;100186.47;5013345;28;20821;-72
2022/08/16 02:09:48;;;;;;;10.87;6.67;;;;;;;19.89;100.00;100185.28;5016971;28;20490;-72
2022/08/16 02:12:16;;;;;;;10.90;6.50;;;;;;;19.88;100.00;100180.94;5016973;28;20467;-71
2022/08/16 02:14:43;;;;;;;12.03;7.33;;;;;;;19.85;100.00;100191.91;5017223;28;20479;-74
2022/08/16 02:17:12;;;;;;;11.70;6.93;;;;;;;19.83;100.00;100188.72;5017175;28;20447;-74
2022/08/16 02:19:41;;;;;;;13.27;7.83;;;;;;;19.81;100.00;100183.59;5017146;28;20448;-74
2022/08/16 02:22:12;;;;;;;12.20;7.40;;;;;;;19.77;100.00;100191.00;5016646;28;21000;-74
2022/08/16 02:24:39;;;;;;;12.10;7.10;;;;;;;19.77;100.00;100188.25;5016799;28;20424;-74
2022/08/16 02:27:06;;;;;;;12.10;6.40;;;;;;;19.67;100.00;100190.88;5017036;28;20867;-74
2022/08/16 02:29:33;;;;;;;15.73;7.73;;;;;;;19.67;100.00;100185.38;5017222;28;20456;-74
2022/08/16 02:32:01;;;;;;;9.40;5.70;;;;;;;19.68;100.00;100184.19;5016814;28;20510;-74
2022/08/16 02:34:27;;;;;;;12.67;7.27;;;;;;;19.58;100.00;100188.38;5016841;28;20444;-73
2022/08/16 02:36:54;;;;;;;9.80;5.73;;;;;;;19.59;100.00;100187.19;5017036;28;20440;-74
2022/08/16 02:39:20;;;;;;;13.20;6.43;;;;;;;19.52;100.00;100185.16;5016788;28;20453;-74
2022/08/16 02:41:49;;;;;;;11.87;7.40;;;;;;;19.50;100.00;100184.72;5016239;28;21195;-75
2022/08/16 02:44:16;;;;;;;13.90;7.40;;;;;;;19.50;100.00;100183.94;5016699;28;20443;-76
2022/08/16 02:46:44;;;;;;;12.07;7.23;;;;;;;19.42;100.00;100181.06;5016308;28;20440;-75
2022/08/16 02:49:12;;;;;;;16.00;7.80;;;;;;;19.38;100.00;100182.97;5016581;28;20459;-74
2022/08/16 02:51:39;;;;;;;10.93;6.93;;;;;;;19.35;100.00;100181.00;5016438;28;20459;-74
2022/08/16 02:54:10;;;;;;;11.00;6.77;;;;;;;19.34;100.00;100179.38;5016237;28;20937;-73
2022/08/16 02:56:36;;;;;;;10.83;5.70;;;;;;;19.35;100.00;100186.47;5016148;28;20443;-73
2022/08/16 02:59:03;;;;;;;12.07;6.07;;;;;;;19.36;100.00;100185.31;5016328;28;20444;-74
2022/08/16 03:01:32;;;;;;;12.40;6.67;;;;;;;19.35;100.00;100180.19;5015933;28;20506;-73
2022/08/16 03:04:00;;;;;;;12.00;6.23;;;;;;;19.35;100.00;100181.00;5016373;28;20535;-74
2022/08/16 03:06:29;;;;;;;15.20;7.63;;;;;;;19.35;100.00;100189.22;5016221;28;20447;-74
2022/08/16 03:08:55;;;;;;;15.27;6.50;;;;;;;19.37;100.00;100186.09;5015950;28;21008;-73
2022/08/16 03:11:22;;;;;;;11.83;6.97;;;;;;;19.25;100.00;100187.09;5016114;28;20459;-76
2022/08/16 03:13:52;;;;;;;13.90;7.27;;;;;;;19.26;100.00;100185.16;5015881;28;20444;-74
2022/08/16 03:16:20;;;;;;;22.23;7.17;;;;;;;19.30;100.00;100188.72;5015844;28;20503;-74
2022/08/16 03:18:47;;;;;;;11.83;6.40;;;;;;;19.26;100.00;100182.41;5015652;28;20432;-74
2022/08/16 03:21:14;;;;;;;8.93;5.50;;;;;;;19.13;100.00;100184.56;5015625;28;20854;-74
2022/08/16 03:23:42;;;;;;;14.37;6.10;;;;;;;19.08;100.00;100198.59;5015938;28;20448;-72
2022/08/16 03:26:09;;;;;;;13.70;6.63;;;;;;;19.04;100.00;100198.56;5015867;28;20728;-73
2022/08/16 03:28:35;;;;;;;14.03;6.70;;;;;;;19.02;100.00;100202.81;5015826;28;20444;-73
2022/08/16 03:31:02;;;;;;;14.60;7.60;;;;;;;19.08;100.00;100210.41;5015787;28;20475;-73
2022/08/16 03:33:28;;;;;;;12.53;7.10;;;;;;;19.05;100.00;100202.09;5015426;28;20494;-73
2022/08/16 03:35:58;;;;;;;15.90;7.73;;;;;;;19.04;100.00;100197.78;5015708;28;20444;-73
2022/08/16 03:38:25;;;;;;;10.33;6.20;;;;;;;18.95;100.00;100203.50;5015696;28;20451;-73
2022/08/16 03:40:54;;;;;;;17.33;7.80;;;;;;;18.96;100.00;100198.81;5015595;28;20479;-73
2022/08/16 03:43:22;;;;;;;12.97;6.53;;;;;;;18.93;100.00;100205.03;5015248;28;20611;-73
2022/08/16 03:45:51;;;;;;;9.23;5.60;;;;;;;18.88;100.00;100206.91;5015518;28;20486;-73
2022/08/16 03:48:17;;;;;;;12.00;6.57;;;;;;;18.85;100.00;100198.63;5015550;28;20483;-73
2022/08/16 03:50:44;;;;;;;15.60;7.60;;;;;;;18.81;100.00;100206.00;5015377;28;20468;-72
2022/08/16 03:53:11;;;;;;;11.87;6.43;;;;;;;18.83;100.00;100209.19;5016709;28;20448;-73
2022/08/16 03:55:37;;;;;;;11.40;7.20;;;;;;;18.81;100.00;100223.25;5015009;28;20440;-73
2022/08/16 03:58:05;;;;;;;11.17;6.17;;;;;;;18.81;100.00;100214.22;5015351;28;20440;-73
2022/08/16 04:00:32;;;;;;;12.07;7.03;;;;;;;18.87;100.00;100219.06;5015042;28;20491;-73
2022/08/16 04:03:05;;;;;;;15.70;7.20;;;;;;;18.94;100.00;100225.81;5015126;28;20514;-74
2022/08/16 04:05:33;;;;;;;10.90;6.27;;;;;;;18.91;100.00;100227.34;5015211;28;20894;-74
2022/08/16 04:08:00;;;;;;;14.00;8.07;;;;;;;18.86;100.00;100222.97;5015114;28;20805;-77
2022/08/16 04:10:26;;;;;;;11.83;6.80;;;;;;;18.93;100.00;100229.72;5015088;28;20467;-76
2022/08/16 04:12:53;;;;;;;10.60;7.10;;;;;;;18.90;100.00;100223.00;5015009;28;20475;-77
2022/08/16 04:15:21;;;;;;;11.07;6.20;;;;;;;18.83;100.00;100223.69;5015038;28;20964;-75
2022/08/16 04:17:47;;;;;;;14.97;7.33;;;;;;;18.88;100.00;100228.88;5014904;28;20494;-73
2022/08/16 04:20:14;;;;;;;11.17;6.80;;;;;;;18.86;100.00;100225.72;5014808;28;20444;-72
2022/08/16 04:22:42;;;;;;;13.87;7.13;;;;;;;18.86;100.00;100224.91;5014798;28;20538;-72
2022/08/16 04:25:10;;;;;;;17.60;7.97;;;;;;;18.85;100.00;100229.59;5014828;28;20452;-72
2022/08/16 04:27:36;;;;;;;12.47;6.80;;;;;;;18.84;100.00;100225.25;5014806;28;20440;-72
2022/08/16 04:30:07;;;;;;;11.53;5.97;;;;;;;18.84;100.00;100221.72;5014646;28;20443;-72
2022/08/16 04:32:35;;;;;;;15.03;6.73;;;;;;;18.82;100.00;100221.31;5013930;28;20798;-72
2022/08/16 04:35:01;;;;;;;9.80;5.90;;;;;;;18.89;100.00;100218.69;5014611;28;20452;-72
2022/08/16 04:37:28;;;;;;;13.93;6.80;;;;;;;18.83;100.00;100229.19;5014591;28;20448;-72
2022/08/16 04:39:55;;;;;;;10.70;6.60;;;;;;;18.89;100.00;100241.44;5014224;28;20463;-72
2022/08/16 04:42:21;;;;;;;10.03;5.77;;;;;;;18.88;100.00;100239.84;5014052;28;20899;-72
2022/08/16 04:44:48;;;;;;;12.17;5.93;;;;;;;18.91;100.00;100238.34;5014418;28;20495;-72
2022/08/16 04:47:14;;;;;;;10.97;6.43;;;;;;;19.00;100.00;100235.34;5014434;28;20450;-72
2022/08/16 04:49:43;;;;;;;11.97;7.17;;;;;;;18.98;100.00;100232.16;5014024;28;20448;-72
2022/08/16 04:52:09;;;;;;;8.37;5.90;;;;;;;19.03;100.00;100240.09;5014261;28;20464;-72
2022/08/16 04:54:36;;;;;;;12.60;7.03;;;;;;;19.05;100.00;100244.06;5014236;28;20440;-72
2022/08/16 04:57:02;;;;;;;15.53;6.40;;;;;;;19.08;100.00;100237.03;5014482;28;20444;-72
2022/08/16 04:59:28;;;;;;;8.47;5.37;;;;;;;19.15;100.00;100237.94;5013917;28;20440;-72
2022/08/16 05:01:55;;;;;;;10.10;6.33;;;;;;;19.22;100.00;100234.53;5013796;28;20511;-72
2022/08/16 05:04:22;;;;;;;10.47;6.30;;;;;;;19.25;100.00;100242.00;5014152;28;20448;-72
2022/08/16 05:06:50;;;;;;;10.77;6.27;;;;;;;19.28;100.00;100246.00;5014040;28;20455;-72
2022/08/16 05:09:17;;;;;;;12.13;6.40;;;;;;;19.29;100.00;100247.56;5014306;28;20448;-72
2022/08/16 05:11:45;;;;;;;14.80;6.93;;;;;;;19.30;100.00;100240.91;5013928;28;20502;-72
2022/08/16 05:14:12;;;;;;;13.27;6.83;;;;;;;19.34;100.00;100239.81;5014017;28;20502;-76
2022/08/16 05:16:38;;;;;;;10.60;5.73;;;;;;;19.41;100.00;100255.63;5013624;28;21072;-76
2022/08/16 05:19:05;;;;;;;10.47;6.27;;;;;;;19.47;100.00;100253.34;5013896;28;20798;-76
2022/08/16 05:21:34;;;;;;;11.30;6.40;;;;;;;19.52;100.00;100261.28;5013404;28;20976;-76
2022/08/16 05:24:02;;;;;;;11.30;6.93;;;;;;;19.60;100.00;100257.47;5013539;28;20968;-76
2022/08/16 05:26:31;;;;;;;12.43;7.70;;;;;;;19.66;100.00;100253.28;5013434;28;20945;-76
2022/08/16 05:28:58;;;;;;;13.50;7.30;;;;;;;19.73;100.00;100264.38;5013801;28;20444;-76
2022/08/16 05:31:25;;;;;;;12.97;7.73;;;;;;;19.79;100.00;100260.16;5013790;28;20475;-76
2022/08/16 05:33:52;;;;;;;12.90;7.37;;;;;;;19.89;100.00;100262.25;5013623;28;20930;-76
2022/08/16 05:36:18;;;;;;;16.97;9.70;;;;;;;19.98;100.00;100261.19;5013677;28;20455;-76
2022/08/16 05:38:45;;;;;;;15.70;8.93;;;;;;;20.06;100.00;100265.63;5013278;28;20818;-73
2022/08/16 05:41:13;;;;;;;15.93;9.17;;;;;;;20.15;100.00;100266.13;5013540;28;20468;-73
2022/08/16 05:43:40;;;;;;;16.87;8.67;;;;;;;20.23;100.00;100262.31;5012611;28;20535;-74
2022/08/16 05:46:06;;;;;;;17.50;8.83;;;;;;;20.32;100.00;100259.22;5013569;28;20447;-74
2022/08/16 05:48:33;;;;;;;13.77;9.30;;;;;;;20.42;100.00;100264.09;5013521;28;20451;-74
2022/08/16 05:50:59;;;;;;;15.57;8.80;;;;;;;20.49;100.00;100266.16;5013108;28;21019;-73
2022/08/16 05:53:26;;;;;;;16.10;8.83;;;;;;;20.58;100.00;100267.44;5013584;28;20440;-81
2022/08/16 05:55:52;;;;;;;16.60;9.70;;;;;;;20.66;100.00;100271.84;5015406;28;20440;-77
2022/08/16 05:58:20;;;;;;;15.23;8.07;;;;;;;20.72;100.00;100275.06;5013916;28;20451;-76
2022/08/16 06:00:46;;;;;;;15.70;8.77;;;;;;;20.77;100.00;100269.22;5013328;28;20487;-75
2022/08/16 06:03:13;;;;;;;16.10;9.93;;;;;;;20.81;100.00;100275.56;5013537;28;20479;-76
2022/08/16 06:05:39;;;;;;;16.53;9.67;;;;;;;20.85;100.00;100270.88;5013790;28;20448;-76
2022/08/16 06:08:06;;;;;;;16.33;10.50;;;;;;;20.89;100.00;100276.41;5013595;28;20451;-76
2022/08/16 06:10:32;;;;;;;15.27;8.57;;;;;;;20.95;100.00;100282.38;5013460;28;20468;-75
2022/08/16 06:12:59;;;;;;;14.27;8.67;;;;;;;20.96;100.00;100281.19;5013320;28;20436;-75
2022/08/16 06:15:27;;;;;;;14.80;9.90;;;;;;;21.02;100.00;100280.47;5013642;28;20455;-76
2022/08/16 06:17:53;;;;;;;16.20;9.50;;;;;;;21.06;100.00;100280.50;5013255;28;20816;-76
2022/08/16 06:20:23;;;;;;;15.37;9.77;;;;;;;21.11;100.00;100288.41;5012907;28;20989;-75
2022/08/16 06:22:49;;;;;;;15.80;9.10;;;;;;;21.14;100.00;100284.91;5013537;28;20486;-78
2022/08/16 06:25:17;;;;;;;16.80;9.20;;;;;;;21.16;100.00;100291.63;5013368;28;20456;-76
2022/08/16 06:27:43;;;;;;;15.40;8.77;;;;;;;21.21;100.00;100293.25;5013098;28;20494;-77
2022/08/16 06:30:12;;;;;;;12.20;7.67;;;;;;;21.24;100.00;100299.94;5013291;28;20829;-76
2022/08/16 06:32:40;;;;;;;15.07;9.17;;;;;;;21.25;100.00;100299.56;5013349;28;20457;-76
2022/08/16 06:35:08;;;;;;;13.83;10.00;;;;;;;21.29;100.00;100305.09;5014462;28;20444;-77
2022/08/16 06:37:35;;;;;;;11.97;8.27;;;;;;;21.33;100.00;100305.94;5014956;28;20933;-78
2022/08/16 06:40:01;;;;;;;18.80;9.70;;;;;;;21.38;100.00;100311.91;5013496;28;20463;-77
2022/08/16 06:42:28;;;;;;;14.23;8.63;;;;;;;21.46;100.00;100309.22;5014418;28;20491;-77
2022/08/16 06:44:55;;;;;;;17.10;10.10;;;;;;;21.49;100.00;100313.97;5013317;28;20448;-75
2022/08/16 06:47:21;;;;;;;14.00;8.93;;;;;;;21.50;100.00;100316.31;5013055;28;20452;-76
2022/08/16 06:49:49;;;;;;;13.33;8.37;;;;;;;21.57;100.00;100318.38;5012674;28;20535;-77
2022/08/16 06:52:15;;;;;;;12.67;8.50;;;;;;;21.58;100.00;100317.19;5012544;28;20464;-74
2022/08/16 06:54:42;;;;;;;16.40;9.33;;;;;;;21.60;100.00;100314.81;5013775;28;20813;-75
2022/08/16 06:57:09;;;;;;;15.33;8.97;;;;;;;21.65;100.00;100320.78;5015941;28;20483;-74
2022/08/16 06:59:36;;;;;;;14.37;7.60;;;;;;;21.69;100.00;100329.06;5015869;28;20522;-75
2022/08/16 07:02:02;;;;;;;14.10;8.03;;;;;;;21.73;100.00;100332.63;5015509;28;20552;-76
2022/08/16 07:04:29;;;;;;;19.73;9.23;;;;;;;21.79;100.00;100328.38;5015462;28;20456;-75
2022/08/16 07:06:57;;;;;;;15.07;8.70;;;;;;;21.82;100.00;100329.56;5015915;28;20541;-74
2022/08/16 07:09:24;;;;;;;17.23;9.50;;;;;;;21.79;100.00;100327.59;5015725;28;20444;-74
2022/08/16 07:11:50;;;;;;;15.67;9.07;;;;;;;21.89;100.00;100333.16;5015735;28;20455;-74
2022/08/16 07:14:17;;;;;;;16.40;9.40;;;;;;;22.00;100.00;100332.44;5015728;28;20451;-73
2022/08/16 07:16:44;;;;;;;11.50;7.57;;;;;;;22.07;100.00;100333.25;5015438;28;20460;-73
2022/08/16 07:19:11;;;;;;;12.40;7.13;;;;;;;22.10;100.00;100332.50;5015583;28;20448;-73
2022/08/16 07:21:39;;;;;;;14.27;8.40;;;;;;;22.17;100.00;100346.34;5015386;28;20477;-73
2022/08/16 07:24:08;;;;;;;13.00;8.97;;;;;;;22.23;100.00;100348.78;5015385;28;20526;-74
2022/08/16 07:26:34;;;;;;;15.13;8.40;;;;;;;22.28;100.00;100351.94;5015402;28;20440;-74
2022/08/16 07:29:01;;;;;;;21.80;9.40;;;;;;;22.27;100.00;100353.13;5015440;28;20452;-74
2022/08/16 07:31:28;;;;;;;13.40;7.07;;;;;;;22.40;100.00;100354.38;5015281;28;20477;-74
2022/08/16 07:33:54;;;;;;;12.80;8.80;;;;;;;22.41;100.00;100353.19;5015271;28;20936;-73
2022/08/16 07:36:22;;;;;;;13.10;7.80;;;;;;;22.49;100.00;100350.44;5015226;28;20460;-72
2022/08/16 07:38:50;;;;;;;14.87;8.57;;;;;;;22.50;100.00;100363.09;5014868;28;20444;-75
2022/08/16 07:41:18;;;;;;;16.90;8.53;;;;;;;22.45;100.00;100371.75;5014786;28;20467;-74
2022/08/16 07:43:44;;;;;;;12.10;7.83;;;;;;;22.53;100.00;100363.09;5015074;28;20856;-74
2022/08/16 07:46:11;;;;;;;12.27;7.00;;;;;;;22.56;100.00;100370.59;5015282;28;20444;-76
2022/08/16 07:48:37;;;;;;;18.70;9.47;;;;;;;22.59;100.00;100366.28;5015005;28;20451;-75
2022/08/16 07:51:04;;;;;;;14.07;7.83;;;;;;;22.67;100.00;100368.69;5014606;28;20472;-75
2022/08/16 07:53:33;;;;;;;13.43;7.77;;;;;;;22.73;100.00;100371.88;5014661;28;20941;-76
2022/08/16 07:56:00;;;;;;;11.83;7.07;;;;;;;22.81;100.00;100367.94;5015242;28;20543;-75
2022/08/16 07:58:29;;;;;;;15.13;9.17;;;;;;;22.80;100.00;100369.13;5015111;28;20455;-76
2022/08/16 08:00:55;;;;;;;11.57;7.50;;;;;;;22.89;100.00;100363.25;5014318;28;20507;-75
2022/08/16 08:03:22;;;;;;;12.50;7.90;;;;;;;22.96;100.00;100366.03;5014534;28;20488;-76
2022/08/16 08:05:48;;;;;;;8.90;6.10;;;;;;;23.01;100.00;100360.13;5013811;28;20448;-75
2022/08/16 08:08:15;;;;;;;10.90;6.53;;;;;;;23.08;100.00;100371.22;5014583;28;20443;-75
2022/08/16 08:10:41;;;;;;;11.47;6.80;;;;;;;23.08;100.00;100367.66;5014050;28;20468;-76
2022/08/16 08:13:08;;;;;;;11.97;8.30;;;;;;;23.13;100.00;100372.81;5014478;28;20491;-76
2022/08/16 08:15:36;;;;;;;13.83;7.23;;;;;;;23.14;100.00;100377.13;5014462;28;20587;-75
2022/08/16 08:18:02;;;;;;;10.80;6.77;;;;;;;23.20;100.00;100375.59;5014360;28;20463;-76
2022/08/16 08:20:29;;;;;;;15.20;7.77;;;;;;;23.26;100.00;100376.78;5014480;28;20460;-76
2022/08/16 08:22:58;;;;;;;13.70;8.43;;;;;;;23.35;100.00;100387.44;5014468;28;20495;-76
2022/08/16 08:25:25;;;;;;;14.57;7.60;;;;;;;23.39;100.00;100391.00;5014422;28;20483;-76
2022/08/16 08:27:52;;;;;;;10.37;6.53;;;;;;;23.44;98.87;100392.59;5014104;28;20455;-76
2022/08/16 08:30:18;;;;;;;12.40;7.30;;;;;;;23.53;97.47;100393.00;5014365;28;20451;-75
2022/08/16 08:32:46;;;;;;;16.70;7.00;;;;;;;23.59;97.22;100391.41;5014151;28;20444;-76
2022/08/16 08:35:13;;;;;;;10.53;6.37;;;;;;;23.63;96.65;100398.53;5014049;28;20455;-75
2022/08/16 08:37:40;;;;;;;11.80;7.27;;;;;;;23.73;98.54;100398.94;5013735;28;20798;-75
2022/08/16 08:40:09;;;;;;;10.40;5.90;;;;;;;23.79;98.78;100389.88;5013884;28;20444;-75
2022/08/16 08:42:36;;;;;;;12.47;6.37;;;;;;;23.85;97.02;100393.03;5013915;28;20436;-75
2022/08/16 08:45:02;;;;;;;13.20;6.90;;;;;;;23.92;92.98;100393.81;5013734;28;20436;-75
2022/08/16 08:47:29;;;;;;;12.30;7.30;;;;;;;24.02;90.76;100403.28;5014074;28;20474;-75
2022/08/16 08:49:57;;;;;;;13.07;6.53;;;;;;;24.08;90.08;100393.41;5013923;28;20797;-76
2022/08/16 08:52:24;;;;;;;10.57;6.10;;;;;;;24.03;92.54;100396.56;5013823;28;20475;-75
2022/08/16 08:54:51;;;;;;;12.80;6.90;;;;;;;24.05;93.09;100390.66;5013738;28;20448;-75
2022/08/16 08:57:19;;;;;;;10.07;5.90;;;;;;;24.17;91.35;100391.03;5013953;28;20448;-76
2022/08/16 08:59:45;;;;;;;11.57;6.30;;;;;;;24.29;90.12;100394.53;5013498;28;20484;-76
2022/08/16 09:02:13;;;;;;;9.40;6.47;;;;;;;24.43;88.52;100400.06;5013429;28;20480;-76
2022/08/16 09:04:40;;;;;;;9.80;5.90;;;;;;;24.57;86.90;100400.03;5013432;28;20570;-76
2022/08/16 09:07:07;;;;;;;11.33;6.30;;;;;;;24.58;87.14;100400.81;5013535;28;20518;-76
2022/08/16 09:09:34;;;;;;;10.33;5.27;;;;;;;24.54;85.32;100405.59;5013162;28;20454;-76
2022/08/16 09:12:01;;;;;;;10.80;6.47;;;;;;;24.57;86.29;100402.81;5013348;28;20468;-76
2022/08/16 09:14:29;;;;;;;9.97;5.33;;;;;;;24.66;87.61;100410.69;5013372;28;20501;-76
2022/08/16 09:16:55;;;;;;;11.73;6.10;;;;;;;24.71;86.23;100412.25;5013210;28;20857;-76
2022/08/16 09:19:22;;;;;;;9.47;6.30;;;;;;;24.77;86.76;100414.19;5013492;28;20448;-77
2022/08/16 09:21:49;;;;;;;9.00;6.27;;;;;;;24.96;81.15;100420.44;5016239;28;20472;-79
2022/08/16 09:24:17;;;;;;;8.43;4.93;;;;;;;25.12;84.08;100412.47;5018300;28;20480;-79
2022/08/16 09:26:44;;;;;;;13.60;5.90;;;;;;;25.17;82.89;100412.84;5017267;28;20440;-78
2022/08/16 09:29:10;;;;;;;12.20;6.13;;;;;;;25.21;81.55;100412.03;5018363;28;21004;-79
2022/08/16 09:31:37;;;;;;;17.07;6.63;;;;;;;25.24;83.27;100419.56;5016740;28;20836;-78
2022/08/16 09:34:04;;;;;;;8.90;5.57;;;;;;;25.38;79.95;100420.25;5015739;28;20875;-77
2022/08/16 09:36:30;;;;;;;9.67;4.70;;;;;;;25.50;78.58;100415.41;5014398;28;20444;-76
2022/08/16 09:38:57;;;;;;;11.27;6.77;;;;;;;25.63;78.93;100424.81;5013929;28;20523;-78
2022/08/16 09:41:25;;;;;;;9.80;5.10;;;;;;;25.67;76.18;100423.59;5014197;28;20889;-77
2022/08/16 09:43:51;;;;;;;6.60;4.13;;;;;;;25.70;79.96;100413.66;5016261;28;20479;-78
2022/08/16 09:46:18;;;;;;;8.00;4.97;;;;;;;25.72;75.86;100421.56;5014099;28;20443;-77
2022/08/16 09:48:45;;;;;;;10.23;5.10;;;;;;;25.80;77.83;100423.13;5013780;28;20444;-78
2022/08/16 09:51:13;;;;;;;8.33;4.80;;;;;;;25.83;76.98;100420.34;5013827;28;20494;-76
2022/08/16 09:53:39;;;;;;;7.30;4.93;;;;;;;25.94;75.49;100416.66;5014712;28;20444;-77
2022/08/16 09:56:14;;;;;;;9.07;5.07;;;;;;;26.02;74.94;100413.41;5013089;28;20452;-76
2022/08/16 09:58:42;;;;;;;8.47;4.30;;;;;;;26.11;76.56;100419.28;5012749;28;20447;-76
2022/08/16 10:01:08;;;;;;;8.73;4.43;;;;;;;26.16;74.99;100416.09;5012490;28;20483;-76
2022/08/16 10:03:35;;;;;;;9.27;4.80;;;;;;;26.31;71.21;100416.72;5012618;28;20500;-76
2022/08/16 10:06:01;;;;;;;7.00;4.03;;;;;;;26.45;72.05;100410.25;5012780;28;20455;-75
2022/08/16 10:08:28;;;;;;;6.33;3.70;;;;;;;26.46;69.93;100414.59;5012707;28;20792;-76
2022/08/16 10:13:40;;;;;;;6.10;3.93;;;;;;;26.61;66.43;100412.47;5012533;28;20458;-75
2022/08/16 10:16:12;;;;;;;6.97;4.03;;;;;;;26.79;65.51;100413.03;5012863;28;20445;-75
2022/08/16 10:18:40;;;;;;;6.57;3.30;;;;;;;26.89;68.32;100403.75;5012533;28;20424;-75
2022/08/16 10:21:08;;;;;;;6.27;3.47;;;;;;;26.87;70.37;100410.91;5012708;28;20463;-75
2022/08/16 10:23:35;;;;;;;8.60;4.20;;;;;;;26.93;69.40;100409.28;5012492;28;20879;-75
2022/08/16 10:26:02;;;;;;;6.03;3.87;;;;;;;26.98;63.18;100416.34;5012513;28;20443;-75
2022/08/16 10:28:30;;;;;;;6.70;3.40;;;;;;;27.09;60.51;100411.47;5012591;28;20451;-75
2022/08/16 10:30:57;;;;;;;5.87;3.43;;;;;;;27.07;63.34;100409.06;5016425;28;20467;-75
2022/08/16 10:33:26;;;;;;;5.37;3.53;;;;;;;27.17;61.28;100410.94;5016001;28;20444;-74
2022/08/16 10:35:52;;;;;;;5.80;3.50;;;;;;;27.27;64.48;100419.53;5016033;28;20487;-75
2022/08/16 10:38:19;;;;;;;7.43;4.03;;;;;;;27.34;63.77;100411.09;5015919;28;20840;-75
2022/08/16 10:40:45;;;;;;;5.63;2.97;;;;;;;27.33;59.88;100418.66;5016321;28;20574;-74
2022/08/16 10:43:12;;;;;;;7.70;3.83;;;;;;;27.51;59.78;100415.63;5016782;28;20490;-74
2022/08/16 10:45:39;;;;;;;5.87;3.63;;;;;;;27.75;61.86;100422.00;5016683;28;20450;-74
2022/08/16 10:48:09;;;;;;;6.90;3.40;;;;;;;27.90;59.43;100417.78;5015923;28;20974;-74
2022/08/16 10:50:38;;;;;;;5.93;4.00;;;;;;;27.85;59.45;100407.16;5016941;28;20472;-75
2022/08/16 10:53:05;;;;;;;8.40;3.60;;;;;;;27.94;58.08;100414.94;5016578;28;20506;-75
2022/08/16 10:55:32;;;;;;;5.60;3.27;;;;;;;28.09;59.16;100415.47;5015975;28;20483;-74
2022/08/16 10:58:01;;;;;;;6.07;3.80;;;;;;;28.22;56.55;100421.22;5015812;28;20450;-74
2022/08/16 11:00:28;;;;;;;8.37;4.50;;;;;;;28.27;56.76;100417.94;5015489;28;20562;-74
2022/08/16 11:02:54;;;;;;;9.00;3.70;;;;;;;28.38;56.63;100415.78;5015590;28;20459;-73
2022/08/16 11:05:21;;;;;;;10.37;4.27;;;;;;;28.44;61.67;100413.28;5015472;28;20487;-75
2022/08/16 11:07:50;;;;;;;8.83;3.17;;;;;;;28.61;60.18;100407.34;5015594;28;20448;-74
2022/08/16 11:10:20;;;;;;;9.07;4.27;;;;;;;28.88;59.86;100415.53;5015361;28;20448;-73
2022/08/16 11:12:46;;;;;;;6.87;3.70;;;;;;;29.20;60.13;100413.31;5015046;28;20455;-74
2022/08/16 11:15:13;;;;;;;6.00;3.17;;;;;;;29.43;54.23;100418.72;5015274;28;20441;-74